sensor_id;sensor_type;location;lat;lon;timestamp;pressure;altitude;pressure_sealevel;temperature;humidity
79538;BME280;68989;52.032;5.152;2023-11-21T00:01:23;101201.69;;;13.74;58.97
79538;BME280;68989;52.032;5.152;2023-11-21T00:03:50;101199.61;;;13.72;59.05
79538;BME280;68989;52.032;5.152;2023-11-21T00:06:17;101202.09;;;13.70;59.00
79538;BME280;68989;52.032;5.152;2023-11-21T00:08:44;101205.20;;;13.69;58.95
79538;BME280;68989;52.032;5.152;2023-11-21T00:11:12;101210.20;;;13.67;58.96
79538;BME280;68989;52.032;5.152;2023-11-21T00:13:39;101215.19;;;13.65;58.95
79538;BME280;68989;52.032;5.152;2023-11-21T00:16:06;101215.43;;;13.63;58.94
79538;BME280;68989;52.032;5.152;2023-11-21T00:18:33;101215.97;;;13.61;58.89
79538;BME280;68989;52.032;5.152;2023-11-21T00:21:00;101217.02;;;13.59;58.95
79538;BME280;68989;52.032;5.152;2023-11-21T00:23:28;101219.55;;;13.56;58.94
79538;BME280;68989;52.032;5.152;2023-11-21T00:25:54;101223.79;;;13.54;58.99
79538;BME280;68989;52.032;5.152;2023-11-21T00:28:21;101224.30;;;13.53;58.97
79538;BME280;68989;52.032;5.152;2023-11-21T00:30:48;101226.17;;;13.52;58.88
79538;BME280;68989;52.032;5.152;2023-11-21T00:33:15;101224.86;;;13.51;58.83
79538;BME280;68989;52.032;5.152;2023-11-21T00:35:42;101223.02;;;13.50;58.84
79538;BME280;68989;52.032;5.152;2023-11-21T00:38:09;101221.54;;;13.48;58.80
79538;BME280;68989;52.032;5.152;2023-11-21T00:40:35;101218.58;;;13.46;58.85
79538;BME280;68989;52.032;5.152;2023-11-21T00:43:03;101218.52;;;13.45;58.76
79538;BME280;68989;52.032;5.152;2023-11-21T00:45:30;101221.75;;;13.44;58.68
79538;BME280;68989;52.032;5.152;2023-11-21T00:47:57;101225.98;;;13.42;58.74
79538;BME280;68989;52.032;5.152;2023-11-21T00:50:24;101229.47;;;13.40;58.77
79538;BME280;68989;52.032;5.152;2023-11-21T00:52:51;101231.77;;;13.39;58.67
79538;BME280;68989;52.032;5.152;2023-11-21T00:55:18;101228.73;;;13.37;58.67
79538;BME280;68989;52.032;5.152;2023-11-21T00:57:45;101231.98;;;13.36;58.70
79538;BME280;68989;52.032;5.152;2023-11-21T01:00:13;101237.66;;;13.37;58.64
79538;BME280;68989;52.032;5.152;2023-11-21T01:02:40;101242.38;;;13.36;58.62
79538;BME280;68989;52.032;5.152;2023-11-21T01:05:07;101247.74;;;13.33;58.70
79538;BME280;68989;52.032;5.152;2023-11-21T01:07:35;101251.86;;;13.32;58.64
79538;BME280;68989;52.032;5.152;2023-11-21T01:10:03;101252.49;;;13.31;58.69
79538;BME280;68989;52.032;5.152;2023-11-21T01:12:45;101254.73;;;13.29;58.65
79538;BME280;68989;52.032;5.152;2023-11-21T01:15:12;101250.89;;;13.28;58.66
79538;BME280;68989;52.032;5.152;2023-11-21T01:17:39;101254.38;;;13.27;58.69
79538;BME280;68989;52.032;5.152;2023-11-21T01:20:07;101258.04;;;13.26;58.69
79538;BME280;68989;52.032;5.152;2023-11-21T01:22:35;101260.21;;;13.25;58.79
79538;BME280;68989;52.032;5.152;2023-11-21T01:25:03;101257.40;;;13.24;58.78
79538;BME280;68989;52.032;5.152;2023-11-21T01:27:30;101259.58;;;13.24;58.76
79538;BME280;68989;52.032;5.152;2023-11-21T01:29:57;101260.71;;;13.24;58.70
79538;BME280;68989;52.032;5.152;2023-11-21T01:32:24;101266.28;;;13.23;58.71
79538;BME280;68989;52.032;5.152;2023-11-21T01:34:51;101268.18;;;13.23;58.64
79538;BME280;68989;52.032;5.152;2023-11-21T01:37:19;101271.15;;;13.21;58.68
79538;BME280;68989;52.032;5.152;2023-11-21T01:39:46;101270.70;;;13.21;58.57
79538;BME280;68989;52.032;5.152;2023-11-21T01:42:13;101270.26;;;13.21;58.57
79538;BME280;68989;52.032;5.152;2023-11-21T01:44:40;101269.31;;;13.20;58.47
79538;BME280;68989;52.032;5.152;2023-11-21T01:47:07;101274.77;;;13.19;58.58
79538;BME280;68989;52.032;5.152;2023-11-21T01:49:35;101279.03;;;13.19;58.59
79538;BME280;68989;52.032;5.152;2023-11-21T01:52:03;101279.95;;;13.19;58.63
79538;BME280;68989;52.032;5.152;2023-11-21T01:54:31;101281.10;;;13.18;58.55
79538;BME280;68989;52.032;5.152;2023-11-21T01:56:58;101281.22;;;13.18;58.69
79538;BME280;68989;52.032;5.152;2023-11-21T01:59:26;101282.80;;;13.19;58.70
79538;BME280;68989;52.032;5.152;2023-11-21T02:01:54;101288.93;;;13.20;58.74
79538;BME280;68989;52.032;5.152;2023-11-21T02:04:21;101294.15;;;13.23;58.69
79538;BME280;68989;52.032;5.152;2023-11-21T02:06:48;101302.55;;;13.24;58.70
79538;BME280;68989;52.032;5.152;2023-11-21T02:09:16;101304.83;;;13.26;58.65
79538;BME280;68989;52.032;5.152;2023-11-21T02:11:48;101308.67;;;13.27;58.69
79538;BME280;68989;52.032;5.152;2023-11-21T02:14:15;101313.67;;;13.30;58.71
79538;BME280;68989;52.032;5.152;2023-11-21T02:16:42;101317.99;;;13.32;58.71
79538;BME280;68989;52.032;5.152;2023-11-21T02:19:11;101319.71;;;13.35;58.77
79538;BME280;68989;52.032;5.152;2023-11-21T02:21:41;101317.21;;;13.37;58.81
79538;BME280;68989;52.032;5.152;2023-11-21T02:24:09;101318.05;;;13.39;58.78
79538;BME280;68989;52.032;5.152;2023-11-21T02:26:36;101315.94;;;13.40;58.80
79538;BME280;68989;52.032;5.152;2023-11-21T02:29:03;101315.30;;;13.43;58.87
79538;BME280;68989;52.032;5.152;2023-11-21T02:31:30;101314.48;;;13.45;58.90
79538;BME280;68989;52.032;5.152;2023-11-21T02:33:58;101321.47;;;13.47;58.88
79538;BME280;68989;52.032;5.152;2023-11-21T02:36:24;101319.47;;;13.50;58.82
79538;BME280;68989;52.032;5.152;2023-11-21T02:38:51;101320.06;;;13.52;58.83
79538;BME280;68989;52.032;5.152;2023-11-21T02:41:18;101319.40;;;13.53;58.84
79538;BME280;68989;52.032;5.152;2023-11-21T02:43:45;101320.80;;;13.55;58.91
79538;BME280;68989;52.032;5.152;2023-11-21T02:46:12;101320.26;;;13.57;58.90
79538;BME280;68989;52.032;5.152;2023-11-21T02:48:39;101319.16;;;13.58;58.94
79538;BME280;68989;52.032;5.152;2023-11-21T02:51:06;101322.15;;;13.60;58.78
79538;BME280;68989;52.032;5.152;2023-11-21T02:53:33;101323.39;;;13.61;59.01
79538;BME280;68989;52.032;5.152;2023-11-21T02:56:01;101320.09;;;13.63;59.06
79538;BME280;68989;52.032;5.152;2023-11-21T02:58:28;101320.71;;;13.65;58.95
79538;BME280;68989;52.032;5.152;2023-11-21T03:00:55;101319.27;;;13.67;58.98
79538;BME280;68989;52.032;5.152;2023-11-21T03:03:22;101318.13;;;13.69;58.99
79538;BME280;68989;52.032;5.152;2023-11-21T03:05:49;101320.83;;;13.70;58.96
79538;BME280;68989;52.032;5.152;2023-11-21T03:08:17;101320.87;;;13.71;59.03
79538;BME280;68989;52.032;5.152;2023-11-21T03:10:43;101322.25;;;13.72;59.06
79538;BME280;68989;52.032;5.152;2023-11-21T03:13:11;101321.20;;;13.74;59.03
79538;BME280;68989;52.032;5.152;2023-11-21T03:15:39;101326.40;;;13.75;59.03
79538;BME280;68989;52.032;5.152;2023-11-21T03:18:05;101324.51;;;13.76;59.10
79538;BME280;68989;52.032;5.152;2023-11-21T03:20:33;101328.88;;;13.79;59.07
79538;BME280;68989;52.032;5.152;2023-11-21T03:23:00;101330.12;;;13.80;58.98
79538;BME280;68989;52.032;5.152;2023-11-21T03:25:28;101332.45;;;13.82;59.06
79538;BME280;68989;52.032;5.152;2023-11-21T03:27:55;101334.49;;;13.83;59.07
79538;BME280;68989;52.032;5.152;2023-11-21T03:30:22;101333.63;;;13.85;58.97
79538;BME280;68989;52.032;5.152;2023-11-21T03:32:50;101330.59;;;13.87;59.01
79538;BME280;68989;52.032;5.152;2023-11-21T03:35:17;101331.46;;;13.88;59.02
79538;BME280;68989;52.032;5.152;2023-11-21T03:37:44;101335.95;;;13.90;59.00
79538;BME280;68989;52.032;5.152;2023-11-21T03:40:11;101339.35;;;13.91;59.07
79538;BME280;68989;52.032;5.152;2023-11-21T03:42:40;101335.85;;;13.92;59.01
79538;BME280;68989;52.032;5.152;2023-11-21T03:45:08;101335.85;;;13.94;59.09
79538;BME280;68989;52.032;5.152;2023-11-21T03:47:35;101338.89;;;13.96;58.98
79538;BME280;68989;52.032;5.152;2023-11-21T03:50:03;101341.27;;;13.97;59.06
79538;BME280;68989;52.032;5.152;2023-11-21T03:52:30;101342.18;;;13.98;59.08
79538;BME280;68989;52.032;5.152;2023-11-21T03:54:57;101344.88;;;13.99;58.97
79538;BME280;68989;52.032;5.152;2023-11-21T03:57:24;101349.66;;;14.00;59.04
79538;BME280;68989;52.032;5.152;2023-11-21T03:59:51;101355.00;;;14.01;59.07
79538;BME280;68989;52.032;5.152;2023-11-21T04:02:18;101355.52;;;14.02;59.04
79538;BME280;68989;52.032;5.152;2023-11-21T04:04:45;101359.28;;;14.02;58.99
79538;BME280;68989;52.032;5.152;2023-11-21T04:07:12;101359.34;;;14.03;59.10
79538;BME280;68989;52.032;5.152;2023-11-21T04:09:39;101362.20;;;14.05;59.03
79538;BME280;68989;52.032;5.152;2023-11-21T04:12:07;101366.20;;;14.05;59.03
79538;BME280;68989;52.032;5.152;2023-11-21T04:14:34;101372.01;;;14.06;59.09
79538;BME280;68989;52.032;5.152;2023-11-21T04:17:01;101373.33;;;14.07;59.06
79538;BME280;68989;52.032;5.152;2023-11-21T04:19:28;101374.23;;;14.08;59.09
79538;BME280;68989;52.032;5.152;2023-11-21T04:21:55;101374.07;;;14.09;59.08
79538;BME280;68989;52.032;5.152;2023-11-21T04:24:22;101375.38;;;14.10;59.12
79538;BME280;68989;52.032;5.152;2023-11-21T04:26:49;101381.61;;;14.11;59.07
79538;BME280;68989;52.032;5.152;2023-11-21T04:29:16;101385.22;;;14.11;59.09
79538;BME280;68989;52.032;5.152;2023-11-21T04:31:43;101391.22;;;14.12;59.09
79538;BME280;68989;52.032;5.152;2023-11-21T04:34:10;101396.42;;;14.13;59.07
79538;BME280;68989;52.032;5.152;2023-11-21T04:36:39;101397.99;;;14.13;59.16
79538;BME280;68989;52.032;5.152;2023-11-21T04:39:06;101401.07;;;14.14;59.12
79538;BME280;68989;52.032;5.152;2023-11-21T04:41:33;101403.69;;;14.15;59.18
79538;BME280;68989;52.032;5.152;2023-11-21T04:44:00;101408.64;;;14.16;59.17
79538;BME280;68989;52.032;5.152;2023-11-21T04:46:27;101412.38;;;14.18;59.21
79538;BME280;68989;52.032;5.152;2023-11-21T04:48:54;101409.53;;;14.19;59.20
79538;BME280;68989;52.032;5.152;2023-11-21T04:51:21;101412.69;;;14.20;59.13
79538;BME280;68989;52.032;5.152;2023-11-21T04:53:48;101411.76;;;14.21;59.14
79538;BME280;68989;52.032;5.152;2023-11-21T04:56:16;101415.39;;;14.22;59.18
79538;BME280;68989;52.032;5.152;2023-11-21T04:58:43;101420.54;;;14.23;59.23
79538;BME280;68989;52.032;5.152;2023-11-21T05:01:10;101423.31;;;14.24;59.21
79538;BME280;68989;52.032;5.152;2023-11-21T05:03:37;101424.71;;;14.25;59.16
79538;BME280;68989;52.032;5.152;2023-11-21T05:06:05;101427.04;;;14.27;59.16
79538;BME280;68989;52.032;5.152;2023-11-21T05:08:31;101427.00;;;14.27;59.11
79538;BME280;68989;52.032;5.152;2023-11-21T05:10:58;101435.38;;;14.29;59.18
79538;BME280;68989;52.032;5.152;2023-11-21T05:13:25;101442.47;;;14.30;59.28
79538;BME280;68989;52.032;5.152;2023-11-21T05:15:52;101446.54;;;14.31;59.30
79538;BME280;68989;52.032;5.152;2023-11-21T05:18:19;101442.13;;;14.32;59.29
79538;BME280;68989;52.032;5.152;2023-11-21T05:20:45;101443.92;;;14.34;59.29
79538;BME280;68989;52.032;5.152;2023-11-21T05:23:13;101444.99;;;14.35;59.28
79538;BME280;68989;52.032;5.152;2023-11-21T05:25:40;101449.78;;;14.37;59.20
79538;BME280;68989;52.032;5.152;2023-11-21T05:28:07;101447.16;;;14.38;59.16
79538;BME280;68989;52.032;5.152;2023-11-21T05:30:34;101446.56;;;14.39;59.16
79538;BME280;68989;52.032;5.152;2023-11-21T05:33:01;101447.59;;;14.40;59.11
79538;BME280;68989;52.032;5.152;2023-11-21T05:35:28;101447.95;;;14.41;59.13
79538;BME280;68989;52.032;5.152;2023-11-21T05:37:55;101449.28;;;14.41;59.06
79538;BME280;68989;52.032;5.152;2023-11-21T05:40:23;101451.88;;;14.42;59.06
79538;BME280;68989;52.032;5.152;2023-11-21T05:42:51;101454.87;;;14.43;59.00
79538;BME280;68989;52.032;5.152;2023-11-21T05:45:18;101457.77;;;14.43;59.10
79538;BME280;68989;52.032;5.152;2023-11-21T05:47:46;101464.22;;;14.43;59.19
79538;BME280;68989;52.032;5.152;2023-11-21T05:50:15;101470.39;;;14.43;59.21
79538;BME280;68989;52.032;5.152;2023-11-21T05:52:42;101475.22;;;14.44;59.17
79538;BME280;68989;52.032;5.152;2023-11-21T05:55:09;101475.64;;;14.44;59.20
79538;BME280;68989;52.032;5.152;2023-11-21T05:57:37;101476.23;;;14.45;59.21
79538;BME280;68989;52.032;5.152;2023-11-21T06:00:06;101484.82;;;14.45;59.22
79538;BME280;68989;52.032;5.152;2023-11-21T06:02:34;101484.95;;;14.46;59.29
79538;BME280;68989;52.032;5.152;2023-11-21T06:05:01;101491.00;;;14.47;59.36
79538;BME280;68989;52.032;5.152;2023-11-21T06:07:28;101494.72;;;14.48;59.37
79538;BME280;68989;52.032;5.152;2023-11-21T06:09:55;101500.99;;;14.49;59.33
79538;BME280;68989;52.032;5.152;2023-11-21T06:12:22;101505.04;;;14.51;59.38
79538;BME280;68989;52.032;5.152;2023-11-21T06:14:49;101507.92;;;14.52;59.45
79538;BME280;68989;52.032;5.152;2023-11-21T06:17:16;101512.10;;;14.54;59.50
79538;BME280;68989;52.032;5.152;2023-11-21T06:19:44;101516.38;;;14.56;59.38
79538;BME280;68989;52.032;5.152;2023-11-21T06:22:11;101519.75;;;14.58;59.37
79538;BME280;68989;52.032;5.152;2023-11-21T06:24:39;101521.03;;;14.59;59.31
79538;BME280;68989;52.032;5.152;2023-11-21T06:27:06;101518.99;;;14.60;59.34
79538;BME280;68989;52.032;5.152;2023-11-21T06:29:34;101517.81;;;14.60;59.43
79538;BME280;68989;52.032;5.152;2023-11-21T06:32:01;101520.53;;;14.62;59.39
79538;BME280;68989;52.032;5.152;2023-11-21T06:34:28;101520.79;;;14.63;59.47
79538;BME280;68989;52.032;5.152;2023-11-21T06:36:55;101524.05;;;14.64;59.46
79538;BME280;68989;52.032;5.152;2023-11-21T06:39:22;101525.65;;;14.65;59.45
79538;BME280;68989;52.032;5.152;2023-11-21T06:41:49;101527.15;;;14.66;59.43
79538;BME280;68989;52.032;5.152;2023-11-21T06:44:16;101527.31;;;14.67;59.43
79538;BME280;68989;52.032;5.152;2023-11-21T06:46:43;101530.26;;;14.67;59.35
79538;BME280;68989;52.032;5.152;2023-11-21T06:49:10;101532.58;;;14.67;59.38
79538;BME280;68989;52.032;5.152;2023-11-21T06:51:38;101536.23;;;14.66;59.42
79538;BME280;68989;52.032;5.152;2023-11-21T06:54:06;101546.90;;;14.67;59.37
79538;BME280;68989;52.032;5.152;2023-11-21T06:56:33;101550.92;;;14.67;59.45
79538;BME280;68989;52.032;5.152;2023-11-21T06:59:00;101558.00;;;14.67;59.50
79538;BME280;68989;52.032;5.152;2023-11-21T07:01:27;101561.55;;;14.68;59.54
79538;BME280;68989;52.032;5.152;2023-11-21T07:03:54;101569.50;;;14.68;59.57
79538;BME280;68989;52.032;5.152;2023-11-21T07:06:22;101577.35;;;14.70;59.57
79538;BME280;68989;52.032;5.152;2023-11-21T07:08:48;101577.82;;;14.71;59.61
79538;BME280;68989;52.032;5.152;2023-11-21T07:11:15;101580.50;;;14.73;59.68
79538;BME280;68989;52.032;5.152;2023-11-21T07:13:42;101581.63;;;14.74;59.77
79538;BME280;68989;52.032;5.152;2023-11-21T07:16:09;101584.92;;;14.75;59.73
79538;BME280;68989;52.032;5.152;2023-11-21T07:18:36;101588.73;;;14.77;59.84
79538;BME280;68989;52.032;5.152;2023-11-21T07:21:04;101592.54;;;14.79;59.76
79538;BME280;68989;52.032;5.152;2023-11-21T07:23:31;101591.83;;;14.81;59.62
79538;BME280;68989;52.032;5.152;2023-11-21T07:25:58;101589.90;;;14.84;59.59
79538;BME280;68989;52.032;5.152;2023-11-21T07:28:25;101588.72;;;14.86;59.61
79538;BME280;68989;52.032;5.152;2023-11-21T07:30:53;101590.96;;;14.88;59.68
79538;BME280;68989;52.032;5.152;2023-11-21T07:33:20;101592.75;;;14.91;59.71
79538;BME280;68989;52.032;5.152;2023-11-21T07:35:47;101597.08;;;14.93;59.63
79538;BME280;68989;52.032;5.152;2023-11-21T07:38:14;101599.31;;;14.95;59.57
79538;BME280;68989;52.032;5.152;2023-11-21T07:40:42;101596.60;;;14.97;59.81
79538;BME280;68989;52.032;5.152;2023-11-21T07:43:09;101595.84;;;15.00;59.83
79538;BME280;68989;52.032;5.152;2023-11-21T07:45:36;101599.28;;;15.02;60.18
79538;BME280;68989;52.032;5.152;2023-11-21T07:48:04;101605.33;;;15.04;60.21
79538;BME280;68989;52.032;5.152;2023-11-21T07:50:32;101608.36;;;15.06;60.17
79538;BME280;68989;52.032;5.152;2023-11-21T07:52:59;101613.88;;;15.08;60.59
79538;BME280;68989;52.032;5.152;2023-11-21T07:55:27;101611.61;;;15.11;60.83
79538;BME280;68989;52.032;5.152;2023-11-21T07:57:54;101613.51;;;15.13;60.73
79538;BME280;68989;52.032;5.152;2023-11-21T08:00:21;101618.19;;;15.15;61.01
79538;BME280;68989;52.032;5.152;2023-11-21T08:02:49;101628.44;;;15.18;61.37
79538;BME280;68989;52.032;5.152;2023-11-21T08:05:16;101634.85;;;15.20;61.49
79538;BME280;68989;52.032;5.152;2023-11-21T08:07:43;101639.45;;;15.23;61.28
79538;BME280;68989;52.032;5.152;2023-11-21T08:10:10;101639.85;;;15.25;61.20
79538;BME280;68989;52.032;5.152;2023-11-21T08:12:37;101643.64;;;15.29;61.75
79538;BME280;68989;52.032;5.152;2023-11-21T08:15:06;101648.38;;;15.31;62.23
79538;BME280;68989;52.032;5.152;2023-11-21T08:17:33;101655.39;;;15.35;62.49
79538;BME280;68989;52.032;5.152;2023-11-21T08:20:00;101661.04;;;15.38;63.01
79538;BME280;68989;52.032;5.152;2023-11-21T08:22:27;101666.59;;;15.43;63.32
79538;BME280;68989;52.032;5.152;2023-11-21T08:24:54;101674.01;;;15.47;63.14
79538;BME280;68989;52.032;5.152;2023-11-21T08:27:21;101675.45;;;15.50;63.35
79538;BME280;68989;52.032;5.152;2023-11-21T08:29:48;101681.43;;;15.53;63.41
79538;BME280;68989;52.032;5.152;2023-11-21T08:32:15;101687.46;;;15.54;63.01
79538;BME280;68989;52.032;5.152;2023-11-21T08:34:42;101692.59;;;15.58;63.36
79538;BME280;68989;52.032;5.152;2023-11-21T08:37:09;101693.42;;;15.61;63.66
79538;BME280;68989;52.032;5.152;2023-11-21T08:39:36;101697.00;;;15.63;63.63
79538;BME280;68989;52.032;5.152;2023-11-21T08:42:04;101694.74;;;15.65;64.22
79538;BME280;68989;52.032;5.152;2023-11-21T08:44:31;101693.10;;;15.68;64.64
79538;BME280;68989;52.032;5.152;2023-11-21T08:46:58;101692.57;;;15.70;64.80
79538;BME280;68989;52.032;5.152;2023-11-21T08:49:25;101690.62;;;15.74;64.47
79538;BME280;68989;52.032;5.152;2023-11-21T08:51:51;101694.65;;;15.77;64.27
79538;BME280;68989;52.032;5.152;2023-11-21T08:54:18;101700.67;;;15.80;64.09
79538;BME280;68989;52.032;5.152;2023-11-21T08:56:45;101703.83;;;15.84;64.53
79538;BME280;68989;52.032;5.152;2023-11-21T08:59:13;101705.46;;;15.89;64.54
79538;BME280;68989;52.032;5.152;2023-11-21T09:01:41;101710.14;;;15.87;64.90
79538;BME280;68989;52.032;5.152;2023-11-21T09:04:08;101710.33;;;15.87;65.38
79538;BME280;68989;52.032;5.152;2023-11-21T09:06:35;101714.74;;;15.89;65.39
79538;BME280;68989;52.032;5.152;2023-11-21T09:09:02;101724.20;;;15.95;65.52
79538;BME280;68989;52.032;5.152;2023-11-21T09:11:29;101731.69;;;16.01;65.78
79538;BME280;68989;52.032;5.152;2023-11-21T09:13:57;101735.05;;;16.05;65.70
79538;BME280;68989;52.032;5.152;2023-11-21T09:16:24;101740.36;;;16.11;65.70
79538;BME280;68989;52.032;5.152;2023-11-21T09:18:51;101742.85;;;16.16;65.84
79538;BME280;68989;52.032;5.152;2023-11-21T09:21:19;101745.31;;;16.20;65.98
79538;BME280;68989;52.032;5.152;2023-11-21T09:23:46;101747.70;;;16.26;66.44
79538;BME280;68989;52.032;5.152;2023-11-21T09:26:13;101749.01;;;16.31;66.10
79538;BME280;68989;52.032;5.152;2023-11-21T09:28:41;101752.29;;;16.35;66.17
79538;BME280;68989;52.032;5.152;2023-11-21T09:31:07;101755.56;;;16.37;66.22
79538;BME280;68989;52.032;5.152;2023-11-21T09:33:35;101760.85;;;16.38;66.26
79538;BME280;68989;52.032;5.152;2023-11-21T09:36:02;101770.28;;;16.43;66.21
79538;BME280;68989;52.032;5.152;2023-11-21T09:38:29;101771.69;;;16.47;65.71
79538;BME280;68989;52.032;5.152;2023-11-21T09:40:56;101769.67;;;16.46;65.54
79538;BME280;68989;52.032;5.152;2023-11-21T09:43:25;101777.53;;;16.47;65.53
79538;BME280;68989;52.032;5.152;2023-11-21T09:46:00;101783.00;;;16.46;65.39
79538;BME280;68989;52.032;5.152;2023-11-21T09:48:29;101788.80;;;16.48;65.28
79538;BME280;68989;52.032;5.152;2023-11-21T09:50:58;101786.29;;;16.49;65.07
79538;BME280;68989;52.032;5.152;2023-11-21T09:53:27;101793.83;;;16.47;64.75
79538;BME280;68989;52.032;5.152;2023-11-21T09:55:59;101801.15;;;16.47;64.91
79538;BME280;68989;52.032;5.152;2023-11-21T09:58:27;101805.73;;;16.46;64.68
79538;BME280;68989;52.032;5.152;2023-11-21T10:00:55;101805.96;;;16.39;64.48
79538;BME280;68989;52.032;5.152;2023-11-21T10:03:24;101811.60;;;16.32;64.71
79538;BME280;68989;52.032;5.152;2023-11-21T10:05:53;101814.94;;;16.34;64.90
79538;BME280;68989;52.032;5.152;2023-11-21T10:08:24;101816.03;;;16.35;64.68
79538;BME280;68989;52.032;5.152;2023-11-21T10:10:53;101823.52;;;16.28;64.89
79538;BME280;68989;52.032;5.152;2023-11-21T10:13:21;101829.65;;;16.32;64.91
79538;BME280;68989;52.032;5.152;2023-11-21T10:15:50;101829.89;;;16.34;64.68
79538;BME280;68989;52.032;5.152;2023-11-21T10:18:17;101837.96;;;16.38;64.82
79538;BME280;68989;52.032;5.152;2023-11-21T10:20:44;101843.89;;;16.40;64.70
79538;BME280;68989;52.032;5.152;2023-11-21T10:23:12;101850.92;;;16.41;64.79
79538;BME280;68989;52.032;5.152;2023-11-21T10:25:40;101856.17;;;16.37;65.01
79538;BME280;68989;52.032;5.152;2023-11-21T10:28:07;101854.12;;;16.29;64.99
79538;BME280;68989;52.032;5.152;2023-11-21T10:30:34;101860.81;;;16.28;65.05
79538;BME280;68989;52.032;5.152;2023-11-21T10:33:02;101868.14;;;16.31;64.86
79538;BME280;68989;52.032;5.152;2023-11-21T10:35:46;101876.95;;;16.31;64.76
79538;BME280;68989;52.032;5.152;2023-11-21T10:38:13;101881.17;;;16.25;64.50
79538;BME280;68989;52.032;5.152;2023-11-21T10:40:42;101891.10;;;16.15;64.90
79538;BME280;68989;52.032;5.152;2023-11-21T10:43:09;101900.61;;;16.19;64.94
79538;BME280;68989;52.032;5.152;2023-11-21T10:45:37;101904.44;;;16.22;64.69
79538;BME280;68989;52.032;5.152;2023-11-21T10:48:06;101906.63;;;16.08;64.70
79538;BME280;68989;52.032;5.152;2023-11-21T10:50:35;101910.51;;;16.08;64.98
79538;BME280;68989;52.032;5.152;2023-11-21T10:53:03;101917.17;;;16.14;64.74
79538;BME280;68989;52.032;5.152;2023-11-21T10:55:32;101917.06;;;16.16;64.39
79538;BME280;68989;52.032;5.152;2023-11-21T10:58:00;101919.12;;;16.14;64.35
79538;BME280;68989;52.032;5.152;2023-11-21T11:00:28;101924.17;;;16.13;64.47
79538;BME280;68989;52.032;5.152;2023-11-21T11:02:55;101922.09;;;16.06;64.94
79538;BME280;68989;52.032;5.152;2023-11-21T11:05:23;101924.04;;;16.11;65.03
79538;BME280;68989;52.032;5.152;2023-11-21T11:07:53;101921.47;;;16.16;64.69
79538;BME280;68989;52.032;5.152;2023-11-21T11:10:22;101924.12;;;16.19;64.24
79538;BME280;68989;52.032;5.152;2023-11-21T11:12:50;101922.28;;;16.27;64.38
79538;BME280;68989;52.032;5.152;2023-11-21T11:15:18;101928.10;;;16.34;64.23
79538;BME280;68989;52.032;5.152;2023-11-21T11:17:46;101925.68;;;16.25;64.03
79538;BME280;68989;52.032;5.152;2023-11-21T11:20:16;101926.87;;;16.24;64.08
79538;BME280;68989;52.032;5.152;2023-11-21T11:22:50;101929.48;;;16.18;63.79
79538;BME280;68989;52.032;5.152;2023-11-21T11:25:35;101935.89;;;16.23;64.15
79538;BME280;68989;52.032;5.152;2023-11-21T11:28:08;101935.85;;;16.29;64.06
79538;BME280;68989;52.032;5.152;2023-11-21T11:30:43;101934.82;;;16.27;63.51
79538;BME280;68989;52.032;5.152;2023-11-21T11:33:21;101933.86;;;16.13;63.86
79538;BME280;68989;52.032;5.152;2023-11-21T11:35:56;101935.82;;;16.00;64.43
79538;BME280;68989;52.032;5.152;2023-11-21T11:38:30;101939.58;;;16.08;64.58
79538;BME280;68989;52.032;5.152;2023-11-21T11:41:02;101938.41;;;16.08;63.97
79538;BME280;68989;52.032;5.152;2023-11-21T11:43:30;101944.20;;;15.99;64.22
79538;BME280;68989;52.032;5.152;2023-11-21T11:45:58;101948.52;;;15.95;64.67
79538;BME280;68989;52.032;5.152;2023-11-21T11:48:25;101951.08;;;16.01;64.35
79538;BME280;68989;52.032;5.152;2023-11-21T11:51:11;101949.92;;;15.98;64.22
79538;BME280;68989;52.032;5.152;2023-11-21T11:53:40;101952.25;;;16.00;64.13
79538;BME280;68989;52.032;5.152;2023-11-21T11:56:25;101959.56;;;16.04;64.32
79538;BME280;68989;52.032;5.152;2023-11-21T11:58:53;101965.64;;;16.12;64.06
79538;BME280;68989;52.032;5.152;2023-11-21T12:01:22;101967.80;;;16.11;63.91
79538;BME280;68989;52.032;5.152;2023-11-21T12:04:56;101970.50;;;16.11;63.93
79538;BME280;68989;52.032;5.152;2023-11-21T12:07:23;101972.56;;;16.13;63.87
79538;BME280;68989;52.032;5.152;2023-11-21T12:09:50;101973.58;;;16.15;64.11
79538;BME280;68989;52.032;5.152;2023-11-21T12:12:17;101975.64;;;16.15;64.01
79538;BME280;68989;52.032;5.152;2023-11-21T12:14:44;101978.66;;;16.14;64.09
79538;BME280;68989;52.032;5.152;2023-11-21T12:17:12;101976.88;;;16.09;64.56
79538;BME280;68989;52.032;5.152;2023-11-21T12:19:39;101978.60;;;16.13;64.54
79538;BME280;68989;52.032;5.152;2023-11-21T12:22:06;101983.93;;;16.15;64.58
79538;BME280;68989;52.032;5.152;2023-11-21T12:24:33;101986.82;;;16.19;64.19
79538;BME280;68989;52.032;5.152;2023-11-21T12:27:00;101984.66;;;16.22;64.08
79538;BME280;68989;52.032;5.152;2023-11-21T12:29:28;101988.91;;;16.20;64.07
79538;BME280;68989;52.032;5.152;2023-11-21T12:31:55;101991.45;;;16.17;64.37
79538;BME280;68989;52.032;5.152;2023-11-21T12:34:22;101996.18;;;16.16;64.37
79538;BME280;68989;52.032;5.152;2023-11-21T12:36:49;102001.12;;;16.23;64.27
79538;BME280;68989;52.032;5.152;2023-11-21T12:39:17;102002.27;;;16.25;63.74
79538;BME280;68989;52.032;5.152;2023-11-21T12:41:44;102002.91;;;16.20;63.80
79538;BME280;68989;52.032;5.152;2023-11-21T12:44:12;102005.24;;;16.24;63.85
79538;BME280;68989;52.032;5.152;2023-11-21T12:46:42;102008.70;;;16.29;63.70
79538;BME280;68989;52.032;5.152;2023-11-21T12:49:10;102010.56;;;16.35;63.71
79538;BME280;68989;52.032;5.152;2023-11-21T12:51:38;102015.99;;;16.40;63.21
79538;BME280;68989;52.032;5.152;2023-11-21T12:54:06;102016.00;;;16.44;63.15